KLNK

Lincoln Airport

Lincoln, Nebraska, USA
KLNK 201723Z 2018/2118 15012G18KT P6SM BKN250 FM202300 12008KT P6SM OVC200 PROB30 2107/2113 4SM -SHRA OVC040 FM211300 10008KT P6SM OVC080 PROB30 2113/2118 4SM -SHRA OVC040
Issued Valid From Valid To
Apr-20 @ 17:23 UTC
(an hour ago)
Apr-20 @ 18:00 UTC
(39 minutes ago)
Apr-21 @ 18:00 UTC
(in 23 hours)
Apr-20 @ 18:00 to Apr-20 @ 23:00
KLNK 201723Z 2018/2118 15012G18KT P6SM BKN250
Wind Visibility Clouds
150° at 12 knots
 Gusting to 18 knots
Greater than 6 miles
  • Broken at 25,000' AGL
From Apr-20 @ 23:00 to Apr-21 @ 13:00
FM202300 12008KT P6SM OVC200
Wind Visibility Clouds
120° at 8 knots Greater than 6 miles
  • Overcast at 20,000' AGL
Probable  (Probability 30%) Apr-21 @ 07:00 to Apr-21 @ 13:00
PROB30 2107/2113 4SM -SHRA OVC040
Visibility Clouds Conditions
4 miles
  • Overcast at 4,000' AGL
  • Light Rain
From Apr-21 @ 13:00 to Apr-21 @ 18:00
FM211300 10008KT P6SM OVC080
Wind Visibility Clouds
100° at 8 knots Greater than 6 miles
  • Overcast at 8,000' AGL
Probable  (Probability 30%) Apr-21 @ 13:00 to Apr-21 @ 18:00
PROB30 2113/2118 4SM -SHRA OVC040
Visibility Clouds Conditions
4 miles
  • Overcast at 4,000' AGL
  • Light Rain
KLNK 201723Z 2018/2118 15012G18KT P6SM BKN250 FM202300 12008KT P6SM OVC200 PROB30 2107/2113 4SM -SHRA OVC040 FM211300 10008KT P6SM OVC080 PROB30 2113/2118 4SM -SHRA OVC040
Issued Apr-20 @ 17:23 UTC
(an hour ago)
Valid From Apr-20 @ 18:00 UTC
(39 minutes ago)
Valid To Apr-21 @ 18:00 UTC
(in 23 hours)
Apr-20 @ 18:00 - Apr-20 @ 23:00
Wind Visibility
150° at 12 knots
 Gusting to 18 knots
Greater than 6 miles
Clouds
  • Broken at 25,000' AGL
From Apr-20 @ 23:00 - Apr-21 @ 13:00
Wind Visibility
120° at 8 knots Greater than 6 miles
Clouds
  • Overcast at 20,000' AGL
Probability 30% Probable Apr-21 @ 07:00 - Apr-21 @ 13:00
Clouds
  • Overcast at 4,000' AGL
Conditions
  • Light Rain
From Apr-21 @ 13:00 - Apr-21 @ 18:00
Wind Visibility
100° at 8 knots Greater than 6 miles
Clouds
  • Overcast at 8,000' AGL
Probability 30% Probable Apr-21 @ 13:00 - Apr-21 @ 18:00
Clouds
  • Overcast at 4,000' AGL
Conditions
  • Light Rain